»·PEaware :: DAL2256 KSLC-KONT

DAL2256 :: KSLC-KONT

FLIGHT INFORMATION

Flight Status: Arrived
Operator:
Delta Air Lines
More flights by this operator :: More flights under this callsign
Pilot: Joshua V. (18904)
Aircraft: BOEING 737-800
(B738)
More flights by this aircraft type
Origin: KSLC Salt Lake City Intl
United States
Destination: KONT Ontario Intl
United States
More flights between these airports :: More routes between these airports
Route: ZIONZ1 EHK BLD Q114 NATEE JCKIE2
File this flight plan on PilotEdge
Remarks:
Altitude:
(Current/Filed)
34,000ft
Speed:
(Current/Filed)
428kts
Departed: 11-Jan-22 10:49 AM
Arrived: 11-Jan-22 12:09 PM
Distance/Time
Traveled:
484nm/1:19
Distance/Time
To Go:
Arrived

Flight Plot

Page will automatically refresh every two minutes.

Flight plan parsing failed; only flown route is shown


Map Options




Map Legend


Flown Route
Filed Route
Departure Airport
Arrival Airport
Navaid (VOR, NDB)
Fix

Horizontal Profiles

Position Reports

Time Latitude Longitude Heading Altitude Ground
Speed
11-Jan-22 10:16 40.785002 -111.989167 354 4225ft 0kts
11-Jan-22 10:17 40.785002 -111.989167 354 4225ft 0kts
11-Jan-22 10:18 40.785002 -111.989167 354 4225ft 0kts
11-Jan-22 10:19 40.785002 -111.989167 354 4225ft 0kts
11-Jan-22 10:20 40.785002 -111.989167 354 4225ft 0kts
11-Jan-22 10:21 40.785002 -111.989167 354 4225ft 0kts
11-Jan-22 10:22 40.785002 -111.989167 354 4225ft 0kts
11-Jan-22 10:23 40.785002 -111.989167 354 4225ft 0kts
11-Jan-22 10:24 40.785002 -111.989167 354 4225ft 0kts
11-Jan-22 10:25 40.785002 -111.989167 354 4225ft 0kts
11-Jan-22 10:26 40.785002 -111.989167 354 4225ft 0kts
11-Jan-22 10:27 40.785002 -111.989167 354 4225ft 0kts
11-Jan-22 10:28 40.785002 -111.989167 354 4225ft 0kts
11-Jan-22 10:29 40.785002 -111.989167 354 4225ft 0kts
11-Jan-22 10:30 40.784940 -111.989160 355 4225ft 1kts
11-Jan-22 10:31 40.784606 -111.988677 266 4225ft 0kts
11-Jan-22 10:32 40.784614 -111.988592 263 4225ft 0kts
11-Jan-22 10:33 40.784614 -111.988592 263 4225ft 0kts
11-Jan-22 10:34 40.784489 -111.990213 264 4225ft 6kts
11-Jan-22 10:35 40.784335 -111.992291 265 4225ft 0kts
11-Jan-22 10:36 40.784335 -111.992291 265 4225ft 0kts
11-Jan-22 10:37 40.784323 -111.992492 265 4225ft 0kts
11-Jan-22 10:38 40.784323 -111.992492 265 4225ft 0kts
11-Jan-22 10:39 40.784323 -111.992492 265 4225ft 0kts
11-Jan-22 10:40 40.784323 -111.992497 265 4225ft 0kts
11-Jan-22 10:41 40.784974 -111.993468 354 4225ft 5kts
11-Jan-22 10:42 40.786835 -111.993682 355 4225ft 12kts
11-Jan-22 10:43 40.793065 -111.994392 355 4225ft 26kts
11-Jan-22 10:44 40.800930 -111.995289 355 4228ft 29kts
11-Jan-22 10:45 40.806396 -111.995952 355 4225ft 12kts
11-Jan-22 10:46 40.807701 -111.997727 266 4225ft 0kts
11-Jan-22 10:47 40.806686 -111.999168 174 4225ft 5kts
11-Jan-22 10:48 40.782394 -111.996206 173 4489ft 175kts
11-Jan-22 10:49 40.759601 -112.039578 299 6497ft 217kts
11-Jan-22 10:50 40.799352 -112.114715 306 8933ft 278kts
11-Jan-22 10:51 40.847846 -112.202896 291 11700ft 320kts
11-Jan-22 10:52 40.809065 -112.296123 194 15101ft 352kts
11-Jan-22 10:53 40.711196 -112.266096 162 18403ft 380kts
11-Jan-22 10:54 40.610452 -112.216299 159 21458ft 398kts
11-Jan-22 10:55 40.506095 -112.160776 157 24216ft 415kts
11-Jan-22 10:56 40.391163 -112.162018 198 26124ft 441kts
11-Jan-22 10:57 40.269541 -112.207646 198 27908ft 472kts
11-Jan-22 10:58 40.139724 -112.254776 198 29607ft 499kts
11-Jan-22 10:59 40.002993 -112.303782 198 31402ft 518kts
11-Jan-22 11:00 39.866111 -112.352419 198 33217ft 527kts
11-Jan-22 11:01 39.725026 -112.402337 198 34607ft 519kts
11-Jan-22 11:02 39.587581 -112.450810 198 34608ft 515kts
11-Jan-22 11:03 39.450125 -112.499087 198 34604ft 510kts
11-Jan-22 11:04 39.314249 -112.546620 197 34603ft 507kts
11-Jan-22 11:05 39.178490 -112.593919 197 34604ft 504kts
11-Jan-22 11:06 39.046454 -112.639795 196 34606ft 490kts
11-Jan-22 11:07 38.914970 -112.685356 195 34591ft 491kts
11-Jan-22 11:08 38.783057 -112.730856 194 34585ft 492kts
11-Jan-22 11:09 38.651083 -112.776142 194 34585ft 493kts
11-Jan-22 11:10 38.518637 -112.821410 194 34584ft 494kts
11-Jan-22 11:11 38.386550 -112.866372 194 34583ft 493kts
11-Jan-22 11:12 38.254015 -112.911311 194 34581ft 495kts
11-Jan-22 11:13 38.121189 -112.956189 194 34579ft 493kts
11-Jan-22 11:14 37.988850 -113.000728 193 34578ft 494kts
11-Jan-22 11:15 37.856842 -113.044996 193 34573ft 492kts
11-Jan-22 11:16 37.736051 -113.122005 220 34571ft 491kts
11-Jan-22 11:17 37.630294 -113.230244 221 34567ft 488kts
11-Jan-22 11:18 37.525241 -113.337940 221 34567ft 488kts
11-Jan-22 11:19 37.420294 -113.445193 221 34567ft 487kts
11-Jan-22 11:20 37.315032 -113.552385 221 34567ft 488kts
11-Jan-22 11:21 37.209737 -113.659219 220 34570ft 488kts
11-Jan-22 11:22 37.104488 -113.765779 220 34567ft 487kts
11-Jan-22 11:23 36.999153 -113.871926 220 34567ft 488kts
11-Jan-22 11:24 36.893308 -113.978147 219 34566ft 488kts
11-Jan-22 11:25 36.788222 -114.083227 219 34560ft 484kts
11-Jan-22 11:26 36.682782 -114.188247 218 34546ft 487kts
11-Jan-22 11:27 36.577337 -114.292905 218 34534ft 486kts
11-Jan-22 11:28 36.471497 -114.397567 218 34522ft 488kts
11-Jan-22 11:29 36.365925 -114.501590 218 34521ft 486kts
11-Jan-22 11:30 36.259907 -114.605688 218 34521ft 486kts
11-Jan-22 11:31 36.154520 -114.708896 217 34522ft 483kts
11-Jan-22 11:32 36.049595 -114.811283 217 34521ft 482kts
11-Jan-22 11:33 35.953429 -114.924201 227 34518ft 468kts
11-Jan-22 11:34 35.865093 -115.042959 227 34518ft 469kts
11-Jan-22 11:35 35.777762 -115.161260 227 34526ft 467kts
11-Jan-22 11:36 35.690709 -115.279123 227 34530ft 466kts
11-Jan-22 11:37 35.603781 -115.396511 227 34530ft 465kts
11-Jan-22 11:38 35.533093 -115.491720 227 34530ft 464kts
11-Jan-22 11:39 35.447755 -115.606307 227 34513ft 463kts
11-Jan-22 11:40 35.360700 -115.722864 226 34025ft 465kts
11-Jan-22 11:41 35.274902 -115.837328 228 32017ft 449kts
11-Jan-22 11:42 35.192180 -115.947291 229 30005ft 429kts
11-Jan-22 11:43 35.111130 -116.054865 229 28017ft 446kts
11-Jan-22 11:44 35.027741 -116.165075 228 25934ft 437kts
11-Jan-22 11:45 34.942190 -116.267619 223 23884ft 426kts
11-Jan-22 11:46 34.859730 -116.360938 225 22517ft 392kts
11-Jan-22 11:47 34.786292 -116.456347 235 21518ft 382kts
11-Jan-22 11:48 34.724001 -116.559805 237 20183ft 381kts
11-Jan-22 11:49 34.663336 -116.661126 236 18359ft 352kts
11-Jan-22 11:50 34.607068 -116.755621 237 16333ft 340kts
11-Jan-22 11:51 34.561143 -116.854143 243 14834ft 329kts
11-Jan-22 11:52 34.507868 -116.942749 231 13775ft 330kts
11-Jan-22 11:53 34.447304 -117.023420 215 12105ft 325kts
11-Jan-22 11:54 34.365150 -117.077256 207 10390ft 320kts
11-Jan-22 11:55 34.293300 -117.122691 207 10166ft 283kts
11-Jan-22 11:56 34.223982 -117.167298 207 10158ft 282kts
11-Jan-22 11:57 34.149089 -117.189940 181 9567ft 275kts
11-Jan-22 11:58 34.076797 -117.194419 181 8146ft 249kts
11-Jan-22 12:00 34.010602 -117.198293 181 6831ft 228kts
11-Jan-22 12:01 33.951235 -117.213101 240 5833ft 228kts
11-Jan-22 12:02 33.979025 -117.266861 353 5359ft 218kts
11-Jan-22 12:03 34.033678 -117.278050 310 4841ft 204kts
11-Jan-22 12:04 34.054250 -117.341999 275 4360ft 206kts
11-Jan-22 12:05 34.054849 -117.406118 271 3847ft 184kts
11-Jan-22 12:06 34.054930 -117.464946 271 2883ft 181kts
11-Jan-22 12:07 34.054952 -117.519079 271 2008ft 147kts
11-Jan-22 12:08 34.054964 -117.566462 270 1242ft 143kts
11-Jan-22 12:09 34.055004 -117.603070 278 932ft 31kts
11-Jan-22 12:10 34.055975 -117.605896 306 938ft 1kts
11-Jan-22 12:11 34.057236 -117.607500 316 945ft 10kts
11-Jan-22 12:12 34.058029 -117.604300 89 945ft 12kts
11-Jan-22 12:13 34.058040 -117.601093 89 942ft 11kts
11-Jan-22 12:14 34.059022 -117.598842 90 947ft 12kts
11-Jan-22 12:15 34.059088 -117.595696 84 947ft 5kts
11-Jan-22 12:16 34.059817 -117.595176 359 951ft 2kts
11-Jan-22 12:17 34.059958 -117.595177 359 951ft 0kts
11-Jan-22 12:18 34.059958 -117.595177 359 951ft 0kts
11-Jan-22 12:19 34.059958 -117.595177 359 951ft 0kts
11-Jan-22 12:19 34.059958 -117.595177 359 951ft 0kts

Navigation Log

Ident Type
Flight plan parsing failed, navigation log unavailable